Time;durP1;ratioP1;P1;durP2;ratioP2;P2;SDS_P1;SDS_P2;PMS_P1;PMS_P2;Temp;Humidity;BMP_temperature;BMP_pressure;BME280_temperature;BME280_humidity;BME280_pressure;Samples;Min_cycle;Max_cycle;Signal;HPM_P1;HPM_P2
2024/01/24 00:00:06;;;;;;;8.35;3.90;;;12.20;99.90;;;;;;5055864;28;20036;-68
2024/01/24 00:02:32;;;;;;;7.97;3.45;;;12.20;99.90;;;;;;5072663;28;20048;-68
2024/01/24 00:04:58;;;;;;;8.00;3.38;;;12.20;99.90;;;;;;5055905;28;20123;-68
2024/01/24 00:07:23;;;;;;;6.25;3.20;;;12.30;99.90;;;;;;5072174;28;20048;-68
2024/01/24 00:09:49;;;;;;;6.20;3.25;;;12.30;99.90;;;;;;5055855;28;20075;-68
2024/01/24 00:12:15;;;;;;;4.75;2.65;;;12.30;99.90;;;;;;5055493;28;20127;-68
2024/01/24 00:14:41;;;;;;;6.90;3.47;;;12.30;99.90;;;;;;5055758;28;20033;-67
2024/01/24 00:17:06;;;;;;;7.05;3.38;;;12.30;99.90;;;;;;5072375;28;20043;-68
2024/01/24 00:19:33;;;;;;;6.95;3.50;;;12.30;99.90;;;;;;5072681;28;20036;-69
2024/01/24 00:21:59;;;;;;;6.65;3.10;;;12.30;99.90;;;;;;5055597;28;20055;-68
2024/01/24 00:24:25;;;;;;;7.13;3.05;;;12.30;99.90;;;;;;5086677;28;20040;-67
2024/01/24 00:26:51;;;;;;;7.30;3.28;;;12.30;99.90;;;;;;5092551;28;20109;-68
2024/01/24 00:29:16;;;;;;;5.78;2.88;;;12.30;99.90;;;;;;5075337;28;20051;-68
2024/01/24 00:31:43;;;;;;;7.45;3.03;;;12.30;99.90;;;;;;5092281;28;20381;-67
2024/01/24 00:34:08;;;;;;;6.35;2.50;;;12.30;99.90;;;;;;5075430;28;20040;-68
2024/01/24 00:36:34;;;;;;;7.03;2.50;;;12.40;99.90;;;;;;5092472;28;20039;-68
2024/01/24 00:39:00;;;;;;;5.20;2.40;;;12.40;99.90;;;;;;5092278;28;20118;-67
2024/01/24 00:41:25;;;;;;;4.82;2.20;;;12.50;99.90;;;;;;5075089;28;20044;-66
2024/01/24 00:43:51;;;;;;;6.60;2.55;;;12.50;99.90;;;;;;5092020;28;20050;-67
2024/01/24 00:46:17;;;;;;;7.68;2.35;;;12.50;99.90;;;;;;5058364;28;20040;-68
2024/01/24 00:48:42;;;;;;;7.30;2.50;;;12.50;99.90;;;;;;5091994;28;20388;-68
2024/01/24 00:51:08;;;;;;;7.05;2.40;;;12.40;99.90;;;;;;5058477;28;20036;-67
2024/01/24 00:53:37;;;;;;;6.45;2.33;;;12.40;99.90;;;;;;5058111;28;20062;-67
2024/01/24 00:56:04;;;;;;;5.47;2.30;;;12.40;99.90;;;;;;5091990;28;20131;-67
2024/01/24 00:58:30;;;;;;;4.78;2.05;;;12.40;99.90;;;;;;5075014;28;20047;-67
2024/01/24 01:00:55;;;;;;;5.38;2.10;;;12.40;99.90;;;;;;5091457;28;20403;-67
2024/01/24 01:03:21;;;;;;;6.30;2.10;;;12.40;99.90;;;;;;5074792;28;20097;-68
2024/01/24 01:05:47;;;;;;;6.05;2.10;;;12.50;99.90;;;;;;5074894;28;20138;-67
2024/01/24 01:08:13;;;;;;;5.15;2.00;;;12.50;99.90;;;;;;5058032;28;20075;-68
2024/01/24 01:10:38;;;;;;;5.93;2.20;;;12.50;99.90;;;;;;5091495;28;20036;-67
2024/01/24 01:13:04;;;;;;;5.40;2.22;;;12.60;99.90;;;;;;5074636;28;20040;-68
2024/01/24 01:15:30;;;;;;;5.65;2.10;;;12.60;99.90;;;;;;5091859;28;20032;-68
2024/01/24 01:17:56;;;;;;;5.25;1.85;;;12.60;99.90;;;;;;5074528;28;20142;-68
2024/01/24 01:20:22;;;;;;;7.65;2.00;;;12.60;99.90;;;;;;5091305;28;20492;-68
2024/01/24 01:22:48;;;;;;;4.97;1.90;;;12.60;99.90;;;;;;5057819;28;20051;-68
2024/01/24 01:25:14;;;;;;;5.97;1.70;;;12.60;99.90;;;;;;5074684;28;20048;-69
2024/01/24 01:27:40;;;;;;;4.78;1.60;;;12.60;99.90;;;;;;5074492;28;20052;-68
2024/01/24 01:30:07;;;;;;;5.18;1.50;;;12.60;99.90;;;;;;5074979;28;20126;-68
2024/01/24 01:32:33;;;;;;;4.65;1.45;;;12.60;99.90;;;;;;5057754;28;20042;-69
2024/01/24 01:34:59;;;;;;;3.70;1.20;;;12.50;99.90;;;;;;5091434;28;20036;-68
2024/01/24 01:37:25;;;;;;;4.78;1.48;;;12.50;99.90;;;;;;5078506;28;20051;-68
2024/01/24 01:39:51;;;;;;;4.53;1.38;;;12.50;99.90;;;;;;5078476;28;20040;-67
2024/01/24 01:42:17;;;;;;;3.42;1.33;;;12.50;99.90;;;;;;5078543;28;20075;-68
2024/01/24 01:44:46;;;;;;;3.25;1.27;;;12.50;99.90;;;;;;5095510;28;20450;-69
2024/01/24 01:47:13;;;;;;;4.20;1.40;;;12.50;99.90;;;;;;5095607;28;20054;-68
2024/01/24 01:49:40;;;;;;;4.45;1.40;;;12.50;99.90;;;;;;5078308;28;20048;-67
2024/01/24 01:52:07;;;;;;;3.80;1.20;;;12.50;99.90;;;;;;5061505;28;20044;-68
2024/01/24 01:54:33;;;;;;;3.97;1.30;;;12.60;99.90;;;;;;5094935;28;20169;-68
2024/01/24 01:56:59;;;;;;;3.38;1.10;;;12.60;99.90;;;;;;5095206;28;20031;-68
2024/01/24 01:59:26;;;;;;;4.68;1.27;;;12.60;99.90;;;;;;5095059;28;20035;-67
2024/01/24 02:01:54;;;;;;;2.75;1.10;;;12.70;99.90;;;;;;5061248;28;20047;-68
2024/01/24 02:04:21;;;;;;;3.53;1.30;;;12.70;99.90;;;;;;5078111;28;20036;-68
2024/01/24 02:06:47;;;;;;;2.97;1.10;;;12.70;99.90;;;;;;5094906;28;20081;-67
2024/01/24 02:09:13;;;;;;;2.78;1.10;;;12.70;99.90;;;;;;5094936;28;20071;-68
2024/01/24 02:11:40;;;;;;;3.83;1.02;;;12.70;99.90;;;;;;5078211;28;20393;-68
2024/01/24 02:14:06;;;;;;;3.33;1.20;;;12.60;99.90;;;;;;5061302;28;20076;-68
2024/01/24 02:16:32;;;;;;;3.80;1.10;;;12.60;99.90;;;;;;5077829;28;20094;-68
2024/01/24 02:18:57;;;;;;;4.90;1.33;;;12.50;99.90;;;;;;5094814;28;20079;-68
2024/01/24 02:21:23;;;;;;;4.18;1.40;;;12.50;99.90;;;;;;5061329;28;20128;-68
2024/01/24 02:23:49;;;;;;;3.28;1.20;;;12.50;99.90;;;;;;5077579;28;20044;-68
2024/01/24 02:26:15;;;;;;;3.15;1.20;;;12.50;99.90;;;;;;5077756;28;20079;-68
2024/01/24 02:28:41;;;;;;;3.50;1.10;;;12.50;99.90;;;;;;5077603;28;20044;-67
2024/01/24 02:31:07;;;;;;;5.80;1.40;;;12.50;99.90;;;;;;5060703;28;20077;-67
2024/01/24 02:33:33;;;;;;;4.35;1.23;;;12.50;99.90;;;;;;5094518;28;20032;-68
2024/01/24 02:35:58;;;;;;;5.72;1.20;;;12.50;99.90;;;;;;5077785;28;20043;-68
2024/01/24 02:38:24;;;;;;;5.07;1.10;;;12.50;99.90;;;;;;5077411;28;20047;-68
2024/01/24 02:40:50;;;;;;;6.65;1.20;;;12.60;99.90;;;;;;5094332;28;20039;-68
2024/01/24 02:43:16;;;;;;;6.38;1.20;;;12.60;99.90;;;;;;5094523;28;20032;-67
2024/01/24 02:45:42;;;;;;;7.25;1.40;;;12.60;99.90;;;;;;5060884;28;20050;-67
2024/01/24 02:48:08;;;;;;;4.22;1.10;;;12.50;99.90;;;;;;5059271;28;20121;-68
2024/01/24 02:50:33;;;;;;;6.85;1.20;;;12.50;99.90;;;;;;5077330;28;20044;-68
2024/01/24 02:52:59;;;;;;;6.13;1.30;;;12.40;99.90;;;;;;5093566;28;20090;-69
2024/01/24 02:55:25;;;;;;;5.90;1.40;;;12.40;99.90;;;;;;5094316;28;20142;-68
2024/01/24 02:57:51;;;;;;;5.88;1.30;;;12.30;99.90;;;;;;5076905;28;20043;-68
2024/01/24 03:00:17;;;;;;;5.30;1.17;;;12.30;99.90;;;;;;5094008;28;20044;-68
2024/01/24 03:02:42;;;;;;;5.15;1.00;;;12.20;99.90;;;;;;5093675;28;20043;-68
2024/01/24 03:05:08;;;;;;;6.63;1.30;;;12.30;99.90;;;;;;5076968;28;20336;-68
2024/01/24 03:07:36;;;;;;;8.10;1.42;;;12.20;99.90;;;;;;5077097;28;20082;-68
2024/01/24 03:10:02;;;;;;;10.10;1.73;;;12.20;99.90;;;;;;5076840;28;20040;-68
2024/01/24 03:12:28;;;;;;;8.50;1.73;;;12.10;99.90;;;;;;5076464;28;20048;-69
2024/01/24 03:14:54;;;;;;;8.82;1.80;;;12.10;99.90;;;;;;5060127;28;20138;-68
2024/01/24 03:17:20;;;;;;;9.43;1.88;;;12.10;99.90;;;;;;5077086;28;20396;-68
2024/01/24 03:19:45;;;;;;;10.05;2.13;;;12.10;99.90;;;;;;5060037;28;20085;-68
2024/01/24 03:22:11;;;;;;;12.18;2.05;;;12.00;99.90;;;;;;5093660;28;20105;-68
2024/01/24 03:24:37;;;;;;;9.48;2.03;;;12.00;99.90;;;;;;5093408;28;20044;-68
2024/01/24 03:27:03;;;;;;;13.38;2.38;;;12.00;99.90;;;;;;5076548;28;20047;-69
2024/01/24 03:29:29;;;;;;;16.23;2.63;;;11.90;99.90;;;;;;5059876;28;20039;-68
2024/01/24 03:31:54;;;;;;;10.77;2.55;;;11.80;99.90;;;;;;5059746;28;20058;-68
2024/01/24 03:34:20;;;;;;;11.40;2.45;;;11.80;99.90;;;;;;5093557;28;20090;-69
2024/01/24 03:36:46;;;;;;;13.70;3.20;;;11.70;99.90;;;;;;5076634;28;20085;-69
2024/01/24 03:39:12;;;;;;;15.20;2.75;;;11.70;99.90;;;;;;5093111;28;20068;-68
2024/01/24 03:41:38;;;;;;;13.60;2.47;;;11.70;99.90;;;;;;5093309;28;20126;-68
2024/01/24 03:44:04;;;;;;;13.02;2.42;;;11.60;99.90;;;;;;5076217;28;20047;-68
2024/01/24 03:46:30;;;;;;;11.63;2.47;;;11.70;99.90;;;;;;5093252;28;20044;-66
2024/01/24 03:48:56;;;;;;;12.77;2.58;;;11.60;99.90;;;;;;5092986;28;20044;-67
2024/01/24 03:51:22;;;;;;;13.13;2.47;;;11.60;99.90;;;;;;5093353;28;20043;-78
2024/01/24 03:53:49;;;;;;;12.20;2.70;;;11.60;99.90;;;;;;5059502;28;20055;-75
2024/01/24 03:56:15;;;;;;;15.15;2.95;;;11.70;99.90;;;;;;5059741;28;20032;-76
2024/01/24 03:58:41;;;;;;;12.35;2.85;;;11.60;99.90;;;;;;5092534;28;20129;-75
2024/01/24 04:01:07;;;;;;;13.32;2.45;;;11.60;99.90;;;;;;5075847;28;20094;-76
2024/01/24 04:03:32;;;;;;;18.15;2.90;;;11.60;99.90;;;;;;5092731;28;20089;-77
2024/01/24 04:05:58;;;;;;;17.73;3.03;;;11.50;99.90;;;;;;5076069;28;20126;-76
2024/01/24 04:08:24;;;;;;;15.90;3.55;;;11.50;99.90;;;;;;5059094;28;20036;-77
2024/01/24 04:10:50;;;;;;;14.05;3.30;;;11.50;99.90;;;;;;5059209;28;20132;-76
2024/01/24 04:13:15;;;;;;;17.10;3.97;;;11.60;99.90;;;;;;5075747;28;20046;-77
2024/01/24 04:15:41;;;;;;;19.20;3.78;;;11.60;99.90;;;;;;5075822;28;20071;-78
2024/01/24 04:18:07;;;;;;;16.52;3.78;;;11.50;99.90;;;;;;5059165;28;20042;-76
2024/01/24 04:20:33;;;;;;;21.23;4.32;;;11.50;99.90;;;;;;5059123;28;20047;-77
2024/01/24 04:22:59;;;;;;;21.05;4.40;;;11.50;99.90;;;;;;5058920;28;20442;-77
2024/01/24 04:25:25;;;;;;;19.40;3.55;;;11.50;99.90;;;;;;5075493;28;20043;-76
2024/01/24 04:27:51;;;;;;;21.77;4.05;;;11.60;99.90;;;;;;5092542;28;20374;-77
2024/01/24 04:30:17;;;;;;;20.95;4.30;;;11.60;99.90;;;;;;5092254;28;20126;-76
2024/01/24 04:32:42;;;;;;;17.80;3.97;;;11.50;99.90;;;;;;5092263;28;20124;-77
2024/01/24 04:35:08;;;;;;;19.52;3.83;;;11.60;99.90;;;;;;5092179;28;20122;-76
2024/01/24 04:37:34;;;;;;;19.65;4.15;;;11.60;99.90;;;;;;5092271;28;20074;-77
2024/01/24 04:40:00;;;;;;;18.63;3.65;;;11.60;99.90;;;;;;5075248;28;20077;-77
2024/01/24 04:42:25;;;;;;;25.52;4.60;;;11.70;99.90;;;;;;5075506;28;20044;-77
2024/01/24 04:44:51;;;;;;;24.05;4.45;;;11.60;99.90;;;;;;5075217;28;20035;-77
2024/01/24 04:47:17;;;;;;;19.75;4.20;;;11.60;99.90;;;;;;5058816;28;20124;-75
2024/01/24 04:49:43;;;;;;;19.40;4.15;;;11.60;99.90;;;;;;5075700;28;20132;-77
2024/01/24 04:52:08;;;;;;;19.42;4.32;;;11.60;99.90;;;;;;5074936;28;20097;-78
2024/01/24 04:54:35;;;;;;;19.33;4.45;;;11.70;99.90;;;;;;5058191;28;20098;-77
2024/01/24 04:57:02;;;;;;;21.25;4.57;;;11.60;99.90;;;;;;5092077;28;20485;-77
2024/01/24 04:59:29;;;;;;;18.17;3.97;;;11.70;99.90;;;;;;5091827;28;20044;-68
2024/01/24 05:01:54;;;;;;;22.77;4.32;;;11.60;99.90;;;;;;5074709;28;20052;-70
2024/01/24 05:04:20;;;;;;;23.25;4.28;;;11.60;99.90;;;;;;5071904;28;20489;-68
2024/01/24 05:06:46;;;;;;;17.75;3.92;;;11.60;99.90;;;;;;5074887;28;20512;-68
2024/01/24 05:09:12;;;;;;;26.50;4.93;;;11.60;99.90;;;;;;5075082;28;20043;-68
2024/01/24 05:11:41;;;;;;;23.23;4.97;;;11.60;99.90;;;;;;5074097;28;20048;-77
2024/01/24 05:14:07;;;;;;;25.00;4.80;;;11.60;99.90;;;;;;5091643;28;20078;-78
2024/01/24 05:16:33;;;;;;;25.48;4.82;;;11.50;99.90;;;;;;5091553;28;20040;-77
2024/01/24 05:18:59;;;;;;;23.40;5.35;;;11.50;99.90;;;;;;5091608;28;20036;-77
2024/01/24 05:21:25;;;;;;;23.02;5.28;;;11.50;99.90;;;;;;5074633;28;20612;-77
2024/01/24 05:23:52;;;;;;;24.60;5.05;;;11.50;99.90;;;;;;5074698;28;20043;-76
2024/01/24 05:26:18;;;;;;;27.38;5.93;;;11.50;99.90;;;;;;5091654;28;20051;-77
2024/01/24 05:28:44;;;;;;;19.95;4.63;;;11.50;99.90;;;;;;5074764;28;20043;-76
2024/01/24 05:31:10;;;;;;;25.00;5.00;;;11.40;99.90;;;;;;5091487;28;20118;-78
2024/01/24 05:33:36;;;;;;;26.33;5.75;;;11.40;99.90;;;;;;5058086;28;20035;-77
2024/01/24 05:36:01;;;;;;;31.08;5.85;;;11.40;99.90;;;;;;5091398;28;20123;-77
2024/01/24 05:38:29;;;;;;;26.98;6.07;;;11.30;99.90;;;;;;5091547;28;20036;-77
2024/01/24 05:40:55;;;;;;;22.17;4.88;;;11.30;99.90;;;;;;5074602;28;20040;-77
2024/01/24 05:43:21;;;;;;;26.02;5.45;;;11.20;99.90;;;;;;5074620;28;20054;-77
2024/01/24 05:45:50;;;;;;;24.52;5.07;;;11.20;99.90;;;;;;5091477;28;20043;-77
2024/01/24 05:48:17;;;;;;;24.80;5.47;;;11.10;99.90;;;;;;5074553;28;20047;-76
2024/01/24 05:50:43;;;;;;;28.88;6.03;;;11.10;99.90;;;;;;5074505;28;20044;-78
2024/01/24 05:53:09;;;;;;;22.63;4.82;;;11.00;99.90;;;;;;5057367;28;20040;-78
2024/01/24 05:55:36;;;;;;;24.67;5.90;;;11.00;99.90;;;;;;5074775;28;20492;-78
2024/01/24 05:58:02;;;;;;;28.60;6.05;;;11.00;99.90;;;;;;5091313;28;20129;-77
2024/01/24 06:00:28;;;;;;;24.77;5.18;;;11.00;99.90;;;;;;5091241;28;20508;-77
2024/01/24 06:02:54;;;;;;;27.05;5.88;;;10.90;99.90;;;;;;5091127;28;20526;-76
2024/01/24 06:05:20;;;;;;;25.77;6.07;;;10.90;99.90;;;;;;5057676;28;20130;-76
2024/01/24 06:07:49;;;;;;;25.60;5.03;;;10.80;99.90;;;;;;5057568;28;20032;-76
2024/01/24 06:10:15;;;;;;;29.75;6.70;;;10.90;99.90;;;;;;5091351;28;20048;-76
2024/01/24 06:12:41;;;;;;;33.13;5.93;;;10.80;99.90;;;;;;5074269;28;20055;-76
2024/01/24 06:15:08;;;;;;;26.58;5.30;;;10.80;99.90;;;;;;5091083;28;20036;-76
2024/01/24 06:17:34;;;;;;;22.00;4.13;;;10.80;99.90;;;;;;5074561;28;20047;-76
2024/01/24 06:20:00;;;;;;;22.58;4.70;;;10.80;99.90;;;;;;5074224;28;20040;-76
2024/01/24 06:22:26;;;;;;;36.08;6.93;;;10.80;99.90;;;;;;5076367;28;20484;-77
2024/01/24 06:24:51;;;;;;;29.63;6.43;;;10.80;99.90;;;;;;5077779;28;20093;-75
2024/01/24 06:27:17;;;;;;;31.30;6.88;;;10.80;99.90;;;;;;5061132;28;20040;-76
2024/01/24 06:29:43;;;;;;;31.52;5.85;;;10.80;99.90;;;;;;5094777;28;20131;-67
2024/01/24 06:32:09;;;;;;;24.85;5.50;;;10.70;99.90;;;;;;5094409;28;20040;-67
2024/01/24 06:34:34;;;;;;;29.88;5.53;;;10.80;99.90;;;;;;5077499;28;20373;-67
2024/01/24 06:37:00;;;;;;;28.70;6.55;;;10.70;99.90;;;;;;5094630;28;20047;-67
2024/01/24 06:39:27;;;;;;;31.48;6.90;;;10.80;99.90;;;;;;5094377;28;20040;-67
2024/01/24 06:41:54;;;;;;;30.42;6.78;;;10.80;99.90;;;;;;5077419;28;20055;-67
2024/01/24 06:44:20;;;;;;;32.70;6.55;;;10.70;99.90;;;;;;5077575;28;20048;-67
2024/01/24 06:46:45;;;;;;;26.90;5.95;;;10.70;99.90;;;;;;5094176;28;20040;-68
2024/01/24 06:49:11;;;;;;;30.20;5.93;;;10.70;99.90;;;;;;5077636;28;20180;-67
2024/01/24 06:51:37;;;;;;;31.15;7.47;;;10.70;99.90;;;;;;5093875;28;20044;-67
2024/01/24 06:54:04;;;;;;;33.00;7.38;;;10.70;99.90;;;;;;5060397;28;20215;-67
2024/01/24 06:56:30;;;;;;;22.52;5.43;;;10.60;99.90;;;;;;5060290;28;20044;-67
2024/01/24 06:58:56;;;;;;;32.97;6.95;;;10.60;99.90;;;;;;5093690;28;20036;-68
2024/01/24 07:01:22;;;;;;;31.40;6.65;;;10.60;99.90;;;;;;5094025;28;20040;-68
2024/01/24 07:03:48;;;;;;;29.80;6.72;;;10.60;99.90;;;;;;5077008;28;20093;-67
2024/01/24 07:06:14;;;;;;;30.95;6.97;;;10.60;99.90;;;;;;5077281;28;20097;-67
2024/01/24 07:08:40;;;;;;;29.15;6.05;;;10.50;99.90;;;;;;5094188;28;20075;-67
2024/01/24 07:11:07;;;;;;;27.55;6.65;;;10.50;99.90;;;;;;5076609;28;20036;-67
2024/01/24 07:13:34;;;;;;;30.98;7.07;;;10.50;99.90;;;;;;5077140;28;20237;-68
2024/01/24 07:16:02;;;;;;;24.55;4.95;;;10.50;99.90;;;;;;5076961;28;20040;-67
2024/01/24 07:18:28;;;;;;;31.00;6.53;;;10.50;99.90;;;;;;5093566;28;20043;-67
2024/01/24 07:20:54;;;;;;;31.48;6.30;;;10.50;99.90;;;;;;5059937;28;20037;-68
2024/01/24 07:23:20;;;;;;;32.30;6.95;;;10.40;99.90;;;;;;5076750;28;20047;-67
2024/01/24 07:25:46;;;;;;;35.38;6.85;;;10.60;99.90;;;;;;5093441;28;20478;-67
2024/01/24 07:28:11;;;;;;;31.13;6.60;;;10.60;99.90;;;;;;5093489;28;20475;-69
2024/01/24 07:30:37;;;;;;;34.90;6.93;;;10.60;99.90;;;;;;5093393;28;20044;-67
2024/01/24 07:33:05;;;;;;;35.78;7.10;;;10.50;99.90;;;;;;5092488;28;20051;-68
2024/01/24 07:35:31;;;;;;;30.63;6.70;;;10.60;99.90;;;;;;5093591;28;20492;-68
2024/01/24 07:37:57;;;;;;;29.17;6.10;;;10.60;99.90;;;;;;5076651;28;20032;-67
2024/01/24 07:40:23;;;;;;;25.88;5.88;;;10.60;99.90;;;;;;5060896;28;20085;-69
2024/01/24 07:42:49;;;;;;;33.28;6.63;;;10.70;99.90;;;;;;5078154;28;20104;-68
2024/01/24 07:45:15;;;;;;;28.35;6.93;;;10.70;99.90;;;;;;5093589;28;20036;-68
2024/01/24 07:47:42;;;;;;;38.50;7.70;;;10.60;99.90;;;;;;5093303;28;20523;-68
2024/01/24 07:50:13;;;;;;;31.83;7.32;;;10.60;99.90;;;;;;5076275;28;20498;-68
2024/01/24 07:52:39;;;;;;;28.25;6.13;;;10.60;99.90;;;;;;5033108;28;20443;-68
2024/01/24 07:55:05;;;;;;;26.65;5.85;;;10.60;99.90;;;;;;5083302;28;20052;-68
2024/01/24 07:57:31;;;;;;;34.70;6.80;;;10.60;99.90;;;;;;5076199;28;20480;-67
2024/01/24 07:59:58;;;;;;;32.08;7.03;;;10.60;99.90;;;;;;5093090;28;20036;-68
2024/01/24 08:02:27;;;;;;;32.25;7.18;;;10.60;99.90;;;;;;5092858;28;20079;-68
2024/01/24 08:04:52;;;;;;;30.35;6.60;;;10.50;99.90;;;;;;5059335;28;20036;-68
2024/01/24 08:07:18;;;;;;;33.80;6.60;;;10.50;99.90;;;;;;5076019;28;20043;-68
2024/01/24 08:09:44;;;;;;;30.70;6.90;;;10.60;99.90;;;;;;5092597;28;20544;-69
2024/01/24 08:12:10;;;;;;;30.73;6.80;;;10.60;99.90;;;;;;5075723;28;20051;-67
2024/01/24 08:14:36;;;;;;;28.85;6.32;;;10.50;99.90;;;;;;5059353;28;20032;-68
2024/01/24 08:17:03;;;;;;;32.55;7.07;;;10.50;99.90;;;;;;5092730;28;20043;-67
2024/01/24 08:19:30;;;;;;;34.35;7.32;;;10.50;99.90;;;;;;5075735;28;20484;-68
2024/01/24 08:21:56;;;;;;;23.52;5.53;;;10.50;99.90;;;;;;5092189;28;20048;-68
2024/01/24 08:24:22;;;;;;;26.02;5.78;;;10.50;99.90;;;;;;5075716;28;20415;-68
2024/01/24 08:26:48;;;;;;;31.90;6.97;;;10.50;99.90;;;;;;5075442;28;20090;-67
2024/01/24 08:29:15;;;;;;;37.75;7.53;;;10.50;99.90;;;;;;5075562;28;20047;-68
2024/01/24 08:31:41;;;;;;;35.65;6.68;;;10.50;99.90;;;;;;5092469;28;20040;-67
2024/01/24 08:34:07;;;;;;;30.80;6.88;;;10.50;99.90;;;;;;5092088;28;20106;-67
2024/01/24 08:36:33;;;;;;;33.95;7.57;;;10.50;99.90;;;;;;5075174;28;20073;-68
2024/01/24 08:38:59;;;;;;;28.85;5.97;;;10.50;99.90;;;;;;5092080;28;20118;-69
2024/01/24 08:41:24;;;;;;;30.02;7.25;;;10.50;99.90;;;;;;5091918;28;20128;-68
2024/01/24 08:43:52;;;;;;;29.20;6.28;;;10.50;99.90;;;;;;5075107;28;20051;-69
2024/01/24 08:46:18;;;;;;;35.65;8.13;;;10.50;99.90;;;;;;5091030;28;20136;-68
2024/01/24 08:48:44;;;;;;;31.08;6.40;;;10.50;99.90;;;;;;5091928;28;20044;-69
2024/01/24 08:51:11;;;;;;;28.58;6.80;;;10.50;99.90;;;;;;5075099;28;20144;-78
2024/01/24 08:53:38;;;;;;;36.40;7.63;;;10.50;99.90;;;;;;5058788;28;20067;-79
2024/01/24 08:56:04;;;;;;;34.97;7.38;;;10.50;99.90;;;;;;5058786;28;20083;-82
2024/01/24 08:58:30;;;;;;;37.95;8.18;;;10.50;99.90;;;;;;5092260;28;20094;-80
2024/01/24 09:00:56;;;;;;;42.63;7.70;;;10.60;99.90;;;;;;5075113;28;20093;-76
2024/01/24 09:03:21;;;;;;;37.95;7.80;;;10.50;99.90;;;;;;5091899;28;20039;-78
2024/01/24 09:05:49;;;;;;;39.60;8.25;;;10.50;99.90;;;;;;5092210;28;20075;-79
2024/01/24 09:08:14;;;;;;;34.50;7.07;;;10.50;99.90;;;;;;5092313;28;20036;-79
2024/01/24 09:10:40;;;;;;;35.95;7.45;;;10.50;99.90;;;;;;5058846;28;20504;-79
2024/01/24 09:13:06;;;;;;;34.45;7.13;;;10.60;99.90;;;;;;5058463;28;20050;-80
2024/01/24 09:15:32;;;;;;;30.55;6.75;;;10.60;99.90;;;;;;5058653;28;20036;-80
2024/01/24 09:17:58;;;;;;;35.38;7.43;;;10.60;99.90;;;;;;5074926;28;20043;-82
2024/01/24 09:20:24;;;;;;;27.65;6.60;;;10.60;99.90;;;;;;5091944;28;20036;-80
2024/01/24 09:22:50;;;;;;;30.63;6.30;;;10.60;99.90;;;;;;5058402;28;20047;-80
2024/01/24 09:25:16;;;;;;;36.50;7.80;;;10.60;99.90;;;;;;5091829;28;20040;-79
2024/01/24 09:27:42;;;;;;;32.80;7.15;;;10.70;99.90;;;;;;5091910;28;20099;-81
2024/01/24 09:30:09;;;;;;;34.78;7.32;;;10.60;99.90;;;;;;5091913;28;20514;-80
2024/01/24 09:32:35;;;;;;;34.38;7.45;;;10.70;99.90;;;;;;5058543;28;20044;-80
2024/01/24 09:35:01;;;;;;;34.72;7.28;;;10.70;99.90;;;;;;5041921;28;20039;-79
2024/01/24 09:37:27;;;;;;;34.47;7.20;;;10.60;99.90;;;;;;5035787;28;20043;-80
2024/01/24 09:39:53;;;;;;;31.95;6.95;;;10.60;99.90;;;;;;5099464;28;20105;-80
2024/01/24 09:42:25;;;;;;;28.38;5.97;;;10.60;99.90;;;;;;5095307;28;20044;-80
2024/01/24 09:44:52;;;;;;;29.65;6.93;;;10.60;99.90;;;;;;5111991;28;20040;-79
2024/01/24 09:47:24;;;;;;;30.55;5.82;;;10.60;99.90;;;;;;5072347;28;20044;-80
2024/01/24 09:49:51;;;;;;;32.95;6.93;;;10.70;99.90;;;;;;5091859;28;20075;-81
2024/01/24 09:52:18;;;;;;;31.40;6.57;;;10.60;99.90;;;;;;5091752;28;20475;-80
2024/01/24 09:54:45;;;;;;;30.90;6.90;;;10.70;99.90;;;;;;5074592;28;20109;-79
2024/01/24 09:57:12;;;;;;;32.15;6.20;;;10.70;99.90;;;;;;5076721;28;20044;-80
2024/01/24 09:59:39;;;;;;;30.20;7.63;;;10.70;99.90;;;;;;5095327;28;20373;-80
2024/01/24 10:02:06;;;;;;;31.80;7.30;;;10.80;99.90;;;;;;5095006;28;20075;-81
2024/01/24 10:04:37;;;;;;;30.08;7.18;;;10.80;99.90;;;;;;5078380;28;20040;-78
2024/01/24 10:07:06;;;;;;;29.77;6.32;;;10.80;99.90;;;;;;5095475;28;20497;-80
2024/01/24 10:09:32;;;;;;;29.98;6.85;;;10.90;99.90;;;;;;5094954;28;20075;-80
2024/01/24 10:11:58;;;;;;;29.35;6.30;;;10.90;99.90;;;;;;5095058;28;20471;-80
2024/01/24 10:14:24;;;;;;;29.98;6.28;;;11.00;99.90;;;;;;5095132;28;20040;-80
2024/01/24 10:16:53;;;;;;;29.70;6.82;;;10.90;99.90;;;;;;5078709;28;20108;-81
2024/01/24 10:19:24;;;;;;;32.53;7.05;;;11.00;99.90;;;;;;5095348;28;20396;-80
2024/01/24 10:21:50;;;;;;;26.50;6.35;;;11.00;99.90;;;;;;5094930;28;20059;-80
2024/01/24 10:24:16;;;;;;;31.33;6.70;;;10.90;99.90;;;;;;5078664;28;20492;-79
2024/01/24 10:26:44;;;;;;;28.85;6.07;;;11.00;99.90;;;;;;5077830;28;20035;-79
2024/01/24 10:29:11;;;;;;;35.63;7.22;;;11.00;99.90;;;;;;5078338;28;20044;-79
2024/01/24 10:31:37;;;;;;;30.35;6.15;;;11.00;99.90;;;;;;5094863;28;20373;-79
2024/01/24 10:34:04;;;;;;;30.23;6.97;;;11.00;99.90;;;;;;5094515;28;20047;-79
2024/01/24 10:36:30;;;;;;;35.45;7.30;;;11.00;99.90;;;;;;5094675;28;20032;-81
2024/01/24 10:39:00;;;;;;;32.05;6.60;;;11.10;99.90;;;;;;5094452;28;20036;-80
2024/01/24 10:41:38;;;;;;;33.00;6.60;;;11.10;99.90;;;;;;5094984;28;20044;-80
2024/01/24 10:44:09;;;;;;;28.30;6.38;;;11.00;99.90;;;;;;5095377;28;20040;-79
2024/01/24 10:46:36;;;;;;;32.95;6.75;;;11.00;99.90;;;;;;5061281;28;20040;-79
2024/01/24 10:49:05;;;;;;;28.85;7.00;;;11.10;99.90;;;;;;5077950;28;20126;-79
2024/01/24 10:51:32;;;;;;;27.92;6.28;;;11.00;99.90;;;;;;5077547;28;20032;-76
2024/01/24 10:53:59;;;;;;;25.90;6.22;;;11.10;99.90;;;;;;5060917;28;20047;-81
2024/01/24 10:56:27;;;;;;;30.90;6.32;;;11.10;99.90;;;;;;5111168;28;20040;-80
2024/01/24 10:58:53;;;;;;;25.77;5.40;;;11.00;99.90;;;;;;5078038;28;20040;-79
2024/01/24 11:01:19;;;;;;;27.45;5.90;;;11.00;99.90;;;;;;5077183;28;20040;-80
2024/01/24 11:03:47;;;;;;;30.45;5.93;;;11.00;99.90;;;;;;5077176;28;20043;-81
2024/01/24 11:06:16;;;;;;;31.58;6.85;;;11.10;99.90;;;;;;5094072;28;20071;-80
2024/01/24 11:08:51;;;;;;;27.05;6.03;;;11.00;99.90;;;;;;5092901;28;20036;-79
2024/01/24 11:11:20;;;;;;;29.58;6.28;;;11.10;99.90;;;;;;5111417;28;20082;-69
2024/01/24 11:13:46;;;;;;;30.85;6.25;;;11.00;99.90;;;;;;5110879;28;20484;-69
2024/01/24 11:16:34;;;;;;;31.08;6.65;;;11.10;99.90;;;;;;5084218;28;20038;-69
2024/01/24 11:19:22;;;;;;;30.23;6.05;;;11.10;99.90;;;;;;5081117;28;20101;-69
2024/01/24 11:21:52;;;;;;;27.52;5.65;;;11.20;99.90;;;;;;5097255;28;20075;-68
2024/01/24 11:24:46;;;;;;;27.05;5.97;;;11.20;99.90;;;;;;5113896;28;20130;-68
2024/01/24 11:27:35;;;;;;;20.60;4.68;;;11.20;99.90;;;;;;5096849;28;20035;-69
2024/01/24 11:30:06;;;;;;;24.95;5.60;;;11.30;99.90;;;;;;5097016;28;20547;-68
2024/01/24 11:32:44;;;;;;;24.70;5.90;;;11.30;99.90;;;;;;5113657;28;20048;-69
2024/01/24 11:35:26;;;;;;;25.52;5.43;;;11.30;99.90;;;;;;5113719;28;20039;-68
2024/01/24 11:38:21;;;;;;;24.40;5.50;;;11.30;99.90;;;;;;5094544;28;20108;-69
2024/01/24 11:40:53;;;;;;;23.92;4.70;;;11.40;99.90;;;;;;5070073;28;20121;-69
2024/01/24 11:43:33;;;;;;;20.98;5.18;;;11.40;99.90;;;;;;5076385;28;20044;-69
2024/01/24 11:46:06;;;;;;;22.75;5.20;;;11.20;99.90;;;;;;5076299;28;20127;-69
2024/01/24 11:48:34;;;;;;;25.92;5.63;;;11.20;99.90;;;;;;5076151;28;20040;-69
2024/01/24 11:51:11;;;;;;;23.08;5.50;;;11.10;99.90;;;;;;5075999;28;20040;-70
2024/01/24 11:53:38;;;;;;;20.77;5.15;;;11.10;99.90;;;;;;5075855;28;20055;-69
2024/01/24 11:56:06;;;;;;;22.65;5.68;;;11.00;99.90;;;;;;5075846;28;20511;-70
2024/01/24 11:58:33;;;;;;;25.40;5.28;;;11.00;99.90;;;;;;5092919;28;20036;-69
2024/01/24 12:01:08;;;;;;;26.63;5.43;;;11.00;99.90;;;;;;5092654;28;20047;-70
2024/01/24 12:03:34;;;;;;;25.45;5.10;;;11.00;99.90;;;;;;5075774;28;20048;-69
2024/01/24 12:06:01;;;;;;;22.27;5.82;;;10.90;99.90;;;;;;5075983;28;20126;-69
2024/01/24 12:08:28;;;;;;;27.38;5.72;;;10.90;99.90;;;;;;5076182;28;20094;-70
2024/01/24 12:10:54;;;;;;;23.52;5.20;;;10.90;99.90;;;;;;5075990;28;20048;-70
2024/01/24 12:13:22;;;;;;;24.17;4.82;;;10.90;99.90;;;;;;5092486;28;20059;-69
2024/01/24 12:15:48;;;;;;;25.17;5.53;;;10.90;99.90;;;;;;5059305;28;20075;-69
2024/01/24 12:18:18;;;;;;;26.75;5.57;;;10.90;99.90;;;;;;5075850;28;20036;-69
2024/01/24 12:20:49;;;;;;;26.92;5.68;;;10.80;99.90;;;;;;5059385;28;20044;-78
2024/01/24 12:23:16;;;;;;;27.85;5.50;;;10.80;99.90;;;;;;5092802;28;20071;-81
2024/01/24 12:25:43;;;;;;;21.92;5.05;;;10.90;99.90;;;;;;5092847;28;20097;-79
2024/01/24 12:28:09;;;;;;;22.40;5.25;;;10.90;99.90;;;;;;5066301;28;20079;-80
2024/01/24 12:30:35;;;;;;;24.63;5.53;;;10.80;99.90;;;;;;5079195;28;20078;-78
2024/01/24 12:33:03;;;;;;;22.95;5.30;;;10.90;99.90;;;;;;5075352;28;20083;-80
2024/01/24 12:35:29;;;;;;;23.90;5.40;;;10.80;99.90;;;;;;5075073;28;20036;-81
2024/01/24 12:38:03;;;;;;;24.50;4.82;;;10.80;99.90;;;;;;5075659;28;20481;-80